Time;durP1;ratioP1;P1;durP2;ratioP2;P2;SDS_P1;SDS_P2;PMS_P1;PMS_P2;Temp;Humidity;BMP_temperature;BMP_pressure;BME280_temperature;BME280_humidity;BME280_pressure;Samples;Min_cycle;Max_cycle;Signal;HPM_P1;HPM_P2
2021/07/09 00:02:12;;;;;;;13.65;10.78;;;;;;;18.96;100.00;100233.00;1702538;84;20864;-68
2021/07/09 00:04:39;;;;;;;16.20;11.03;;;;;;;18.94;100.00;100238.47;1702733;84;21785;-69
2021/07/09 00:07:05;;;;;;;15.80;11.30;;;;;;;18.91;100.00;100233.03;1702277;84;20971;-68
2021/07/09 00:09:33;;;;;;;13.10;10.63;;;;;;;18.88;100.00;100236.91;1702137;84;20893;-68
2021/07/09 00:12:01;;;;;;;13.38;10.75;;;;;;;18.83;100.00;100232.34;1669868;84;21434;-69
2021/07/09 00:14:34;;;;;;;15.53;10.82;;;;;;;18.82;100.00;100234.26;1702512;83;20876;-68
2021/07/09 00:17:03;;;;;;;18.27;11.85;;;;;;;18.87;100.00;100237.46;1702325;82;20916;-68
2021/07/09 00:19:29;;;;;;;15.00;11.18;;;;;;;18.83;100.00;100239.94;1702233;84;20877;-68
2021/07/09 00:21:57;;;;;;;17.73;12.20;;;;;;;18.79;100.00;100234.02;1702446;83;21612;-68
2021/07/09 00:24:25;;;;;;;18.35;12.35;;;;;;;18.72;100.00;100228.13;1702415;84;21521;-69
2021/07/09 00:26:51;;;;;;;16.20;11.85;;;;;;;18.63;100.00;100223.86;1702372;83;21394;-69
2021/07/09 00:29:18;;;;;;;19.32;12.40;;;;;;;18.57;100.00;100224.48;1702453;84;21143;-68
2021/07/09 00:31:46;;;;;;;13.20;11.90;;;;;;;18.52;100.00;100224.55;1702450;83;20940;-68
2021/07/09 00:34:13;;;;;;;16.10;12.93;;;;;;;18.49;100.00;100224.30;1702427;84;20852;-68
2021/07/09 00:36:41;;;;;;;17.77;12.35;;;;;;;18.48;100.00;100221.34;1702397;84;20951;-68
2021/07/09 00:39:08;;;;;;;16.73;11.75;;;;;;;18.47;100.00;100220.53;1701495;84;20975;-69
2021/07/09 00:41:36;;;;;;;;;;;;;;;18.50;100.00;100220.50;1704881;82;20952;-69
2021/07/09 00:44:05;;;;;;;13.43;11.45;;;;;;;18.52;100.00;100221.83;1702574;84;20467;-68
2021/07/09 00:46:36;;;;;;;19.27;11.35;;;;;;;18.53;100.00;100227.52;1702317;82;21439;-69
2021/07/09 00:49:06;;;;;;;15.85;12.45;;;;;;;18.56;100.00;100222.85;1702207;83;21035;-69
2021/07/09 00:51:32;;;;;;;15.80;11.78;;;;;;;18.55;100.00;100228.59;1702313;83;20892;-69
2021/07/09 00:54:00;;;;;;;18.42;12.88;;;;;;;18.50;100.00;100228.11;1702438;84;21152;-68
2021/07/09 00:56:28;;;;;;;15.63;11.45;;;;;;;18.46;100.00;100227.05;1702314;83;20999;-68
2021/07/09 00:58:56;;;;;;;12.35;10.95;;;;;;;18.48;100.00;100227.58;1702222;84;20979;-68
2021/07/09 01:01:23;;;;;;;24.45;13.53;;;;;;;18.48;100.00;100226.22;1702409;84;21621;-68
2021/07/09 01:03:49;;;;;;;29.52;17.70;;;;;;;18.42;100.00;100221.41;1702386;83;20979;-68
2021/07/09 01:06:17;;;;;;;;;;;;;;;18.36;100.00;100221.74;1704948;84;21221;-68
2021/07/09 01:08:44;;;;;;;18.73;14.38;;;;;;;18.28;100.00;100221.03;1702658;83;20176;-68
2021/07/09 01:11:12;;;;;;;17.73;13.93;;;;;;;18.23;100.00;100222.41;1702373;83;20972;-68
2021/07/09 01:13:43;;;;;;;17.32;14.53;;;;;;;18.16;100.00;100218.15;1702329;83;20872;-68
2021/07/09 01:16:13;;;;;;;17.98;13.20;;;;;;;18.13;100.00;100219.29;1702496;84;20908;-68
2021/07/09 01:18:42;;;;;;;23.62;13.50;;;;;;;18.09;100.00;100221.75;1702260;82;20888;-69
2021/07/09 01:21:09;;;;;;;16.73;13.75;;;;;;;18.07;100.00;100219.06;1702298;84;20844;-69
2021/07/09 01:23:38;;;;;;;20.55;13.55;;;;;;;18.03;100.00;100218.01;1702353;84;21006;-68
2021/07/09 01:26:06;;;;;;;21.07;14.33;;;;;;;17.94;100.00;100214.56;1701772;84;21545;-68
2021/07/09 01:28:34;;;;;;;13.80;12.40;;;;;;;17.90;100.00;100218.14;1702594;84;23782;-68
2021/07/09 01:31:01;;;;;;;21.57;14.15;;;;;;;17.84;100.00;100216.58;1702404;82;21098;-68
2021/07/09 01:33:28;;;;;;;21.07;14.25;;;;;;;17.80;100.00;100214.97;1702352;84;20919;-68
2021/07/09 01:35:56;;;;;;;18.45;13.28;;;;;;;17.74;100.00;100209.31;1669552;84;21003;-68
2021/07/09 01:38:23;;;;;;;20.57;13.72;;;;;;;17.66;100.00;100213.97;1702318;84;20943;-68
2021/07/09 01:40:50;;;;;;;16.05;14.13;;;;;;;17.63;100.00;100209.92;1702461;83;20920;-68
2021/07/09 01:43:17;;;;;;;16.82;12.93;;;;;;;17.65;100.00;100211.81;1702594;83;21123;-68
2021/07/09 01:45:44;;;;;;;22.80;14.50;;;;;;;17.65;100.00;100215.88;1702458;84;21023;-68
2021/07/09 01:48:11;;;;;;;18.42;13.22;;;;;;;17.60;100.00;100215.93;1702519;83;20860;-68
2021/07/09 01:50:37;;;;;;;19.85;13.20;;;;;;;17.58;100.00;100211.33;1701581;84;20942;-68
2021/07/09 01:53:04;;;;;;;17.40;12.53;;;;;;;17.58;100.00;100211.33;1702289;83;21082;-68
2021/07/09 01:55:31;;;;;;;19.07;13.08;;;;;;;17.57;100.00;100206.45;1702417;82;21095;-68
2021/07/09 01:57:57;;;;;;;17.65;12.60;;;;;;;17.58;100.00;100214.05;1702367;84;21098;-68
2021/07/09 02:00:26;;;;;;;15.78;13.25;;;;;;;17.63;100.00;100212.64;1702401;83;21668;-68
2021/07/09 02:02:52;;;;;;;;;;;;;;;17.64;100.00;100212.92;1704641;83;21194;-69
2021/07/09 02:05:21;;;;;;;20.90;12.53;;;;;;;17.66;100.00;100214.78;1702445;84;20113;-68
2021/07/09 02:07:56;;;;;;;16.23;12.70;;;;;;;17.67;100.00;100215.06;1702279;82;21142;-69
2021/07/09 02:10:27;;;;;;;18.37;12.65;;;;;;;17.68;100.00;100206.36;1702440;83;20984;-69
2021/07/09 02:12:55;;;;;;;15.05;11.57;;;;;;;17.66;100.00;100213.42;1702397;84;20974;-69
2021/07/09 02:15:28;;;;;;;25.27;13.85;;;;;;;17.62;100.00;100212.95;1702362;82;20951;-68
2021/07/09 02:17:57;;;;;;;16.97;12.78;;;;;;;17.58;100.00;100211.33;1702319;83;20959;-69
2021/07/09 02:20:26;;;;;;;14.35;12.35;;;;;;;17.61;100.00;100206.68;1702277;83;21038;-69
2021/07/09 02:22:58;;;;;;;16.75;12.63;;;;;;;17.67;100.00;100206.91;1702285;84;20967;-69
2021/07/09 02:25:26;;;;;;;19.10;12.90;;;;;;;17.71;100.00;100202.55;1702296;84;20943;-69
2021/07/09 02:27:54;;;;;;;15.90;12.78;;;;;;;17.74;100.00;100207.40;1702418;82;20988;-69
2021/07/09 02:30:25;;;;;;;14.13;11.97;;;;;;;17.77;100.00;100206.81;1701655;82;20888;-69
2021/07/09 02:32:51;;;;;;;20.80;12.75;;;;;;;17.82;100.00;100207.36;1702461;82;21134;-69
2021/07/09 02:35:21;;;;;;;16.85;11.12;;;;;;;17.87;100.00;100208.66;1702407;82;21011;-69
2021/07/09 02:37:48;;;;;;;14.20;11.35;;;;;;;17.95;100.00;100206.67;1701390;84;21755;-69
2021/07/09 02:40:18;;;;;;;21.75;12.35;;;;;;;18.04;100.00;100207.42;1702059;82;20916;-69
2021/07/09 02:42:48;;;;;;;19.48;11.10;;;;;;;18.11;100.00;100209.25;1702546;84;21498;-69
2021/07/09 02:45:18;;;;;;;15.40;11.05;;;;;;;18.18;100.00;100206.45;1702074;83;21569;-69
2021/07/09 02:47:50;;;;;;;21.87;11.05;;;;;;;18.29;100.00;100206.33;1702152;82;21052;-69
2021/07/09 02:50:19;;;;;;;17.80;10.60;;;;;;;18.36;100.00;100205.44;1702422;83;21513;-70
2021/07/09 02:52:46;;;;;;;24.72;11.15;;;;;;;18.39;100.00;100204.85;1702164;84;21482;-70
2021/07/09 02:55:13;;;;;;;22.80;11.00;;;;;;;18.45;100.00;100203.70;1702293;82;21046;-70
2021/07/09 02:57:41;;;;;;;20.20;11.05;;;;;;;18.50;100.00;100200.12;1702393;83;21224;-69
2021/07/09 03:00:13;;;;;;;14.40;10.43;;;;;;;18.59;100.00;100207.87;1702216;82;20868;-69
2021/07/09 03:02:42;;;;;;;12.95;9.90;;;;;;;18.69;100.00;100206.41;1702120;83;21435;-70
2021/07/09 03:05:11;;;;;;;23.52;10.45;;;;;;;18.79;100.00;100207.66;1702391;84;21474;-70
2021/07/09 03:07:39;;;;;;;19.05;10.70;;;;;;;18.87;100.00;100203.47;1702275;82;20943;-70
2021/07/09 03:10:09;;;;;;;12.78;9.18;;;;;;;18.90;100.00;100206.15;1702400;84;21314;-69
2021/07/09 03:12:38;;;;;;;16.15;9.48;;;;;;;18.93;100.00;100204.19;1702401;82;21743;-69
2021/07/09 03:15:08;;;;;;;28.47;11.10;;;;;;;18.99;100.00;100205.20;1702042;84;20979;-69
2021/07/09 03:17:35;;;;;;;20.00;10.18;;;;;;;19.03;100.00;100205.41;1702501;82;21054;-69
2021/07/09 03:20:06;;;;;;;29.35;9.65;;;;;;;19.12;100.00;100202.28;1702702;84;20956;-69
2021/07/09 03:22:33;;;;;;;22.22;10.53;;;;;;;19.19;100.00;100201.36;1702204;84;21878;-68
2021/07/09 03:24:59;;;;;;;14.60;9.40;;;;;;;19.28;100.00;100202.32;1702449;84;20923;-68
2021/07/09 03:27:26;;;;;;;14.93;9.03;;;;;;;19.37;100.00;100207.08;1702085;84;20868;-68
2021/07/09 03:29:53;;;;;;;19.95;10.28;;;;;;;19.44;100.00;100208.31;1702402;84;20904;-68
2021/07/09 03:32:20;;;;;;;28.52;9.75;;;;;;;19.49;100.00;100214.23;1702781;83;20845;-69
2021/07/09 03:34:50;;;;;;;19.10;8.85;;;;;;;19.59;100.00;100218.70;1702521;82;21153;-68
2021/07/09 03:37:18;;;;;;;12.75;9.30;;;;;;;19.72;100.00;100212.54;1664240;85;20962;-68
2021/07/09 03:39:46;;;;;;;15.85;8.65;;;;;;;19.83;100.00;100211.80;1667758;86;21038;-68
2021/07/09 03:42:16;;;;;;;15.58;8.25;;;;;;;19.95;100.00;100216.77;1664058;85;21106;-68
2021/07/09 03:44:42;;;;;;;20.75;7.97;;;;;;;20.09;100.00;100224.41;1635310;87;20930;-67
2021/07/09 03:47:09;;;;;;;8.43;7.28;;;;;;;20.20;100.00;100239.45;1648450;86;21191;-67
2021/07/09 03:49:36;;;;;;;12.23;7.90;;;;;;;20.32;100.00;100235.67;1667256;84;21055;-66
2021/07/09 03:52:04;;;;;;;36.23;12.00;;;;;;;20.39;100.00;100241.30;1668079;86;20948;-68
2021/07/09 03:54:31;;;;;;;14.67;8.70;;;;;;;20.52;100.00;100245.93;1668031;85;20907;-68
2021/07/09 03:56:58;;;;;;;15.18;9.08;;;;;;;20.62;100.00;100252.56;1668207;86;20996;-67
2021/07/09 03:59:26;;;;;;;15.45;8.58;;;;;;;20.62;100.00;100247.67;1667905;86;26981;-67
2021/07/09 04:01:52;;;;;;;17.40;8.83;;;;;;;20.57;100.00;100249.14;1667218;86;20979;-67
2021/07/09 04:04:19;;;;;;;15.35;7.70;;;;;;;20.55;100.00;100251.63;1668261;86;21513;-65
2021/07/09 04:06:48;;;;;;;9.83;8.10;;;;;;;20.47;100.00;100254.22;1650824;87;20968;-67
2021/07/09 04:09:16;;;;;;;16.80;8.65;;;;;;;20.42;100.00;100255.68;1650945;86;21015;-67
2021/07/09 04:11:43;;;;;;;13.78;7.50;;;;;;;20.42;100.00;100255.68;1667986;86;21179;-66
2021/07/09 04:14:09;;;;;;;13.98;7.62;;;;;;;20.47;100.00;100259.67;1702533;83;20892;-67
2021/07/09 04:16:36;;;;;;;14.43;7.50;;;;;;;20.65;100.00;100264.79;1702145;84;20932;-66
2021/07/09 04:19:04;;;;;;;;;;;;;;;20.83;100.00;100267.17;1704909;83;20975;-66
2021/07/09 04:21:31;;;;;;;8.85;6.87;;;;;;;21.00;100.00;100270.08;1702238;84;20117;-67
2021/07/09 04:23:58;;;;;;;;;;;;;;;21.10;100.00;100268.48;1704899;84;21163;-66
2021/07/09 04:26:25;;;;;;;11.95;6.95;;;;;;;21.28;100.00;100263.18;1702779;82;20156;-66
2021/07/09 04:28:51;;;;;;;11.18;6.78;;;;;;;21.52;100.00;100268.39;1702553;83;20948;-66
2021/07/09 04:31:18;;;;;;;13.10;7.45;;;;;;;21.70;100.00;100264.66;1701966;84;21647;-66
2021/07/09 04:33:45;;;;;;;8.45;6.72;;;;;;;21.94;100.00;100263.53;1700937;83;21059;-66
2021/07/09 04:36:14;;;;;;;14.03;7.60;;;;;;;22.04;100.00;100269.53;1701580;83;20962;-66
2021/07/09 04:38:40;;;;;;;16.80;7.40;;;;;;;22.19;100.00;100269.69;1702268;84;20876;-66
2021/07/09 04:41:07;;;;;;;9.10;6.33;;;;;;;22.32;100.00;100261.20;1702082;84;21020;-66
2021/07/09 04:43:34;;;;;;;9.33;6.65;;;;;;;22.36;100.00;100266.83;1701930;83;21106;-66
2021/07/09 04:46:01;;;;;;;9.70;6.90;;;;;;;22.44;100.00;100261.41;1701747;82;20979;-66
2021/07/09 04:48:29;;;;;;;31.90;7.75;;;;;;;22.57;100.00;100263.78;1701775;82;21185;-66
2021/07/09 04:50:56;;;;;;;13.93;6.65;;;;;;;22.58;100.00;100257.73;1701573;83;21026;-66
2021/07/09 04:53:23;;;;;;;14.75;7.15;;;;;;;22.72;100.00;100261.17;1694842;84;20979;-65
2021/07/09 04:55:50;;;;;;;21.10;6.70;;;;;;;22.91;100.00;100263.63;1678845;83;20998;-65
2021/07/09 04:58:16;;;;;;;12.50;5.85;;;;;;;22.94;100.00;100267.09;1668060;85;21066;-66
2021/07/09 05:00:43;;;;;;;16.95;6.60;;;;;;;22.98;100.00;100266.73;1668274;84;21097;-66
2021/07/09 05:03:10;;;;;;;26.50;6.75;;;;;;;23.15;100.00;100261.85;1668479;86;20987;-65
2021/07/09 05:05:36;;;;;;;31.52;7.12;;;;;;;23.26;100.00;100265.07;1668127;84;21019;-66
2021/07/09 05:08:05;;;;;;;13.18;5.37;;;;;;;23.29;100.00;100263.05;1668396;84;20912;-64
2021/07/09 05:10:32;;;;;;;10.25;5.92;;;;;;;23.42;100.00;100265.38;1668256;84;21095;-64
2021/07/09 05:13:07;;;;;;;19.20;6.40;;;;;;;23.55;100.00;100267.16;1668404;85;21050;-64
2021/07/09 05:15:34;;;;;;;8.85;4.95;;;;;;;23.74;100.00;100269.03;1668164;85;21423;-64
2021/07/09 05:18:01;;;;;;;10.38;5.20;;;;;;;24.03;100.00;100277.67;1668494;84;20993;-65
2021/07/09 05:20:28;;;;;;;6.65;5.35;;;;;;;24.41;100.00;100277.71;1647556;85;20947;-66
2021/07/09 05:22:55;;;;;;;16.93;5.75;;;;;;;24.55;100.00;100281.08;1668427;85;20979;-64
2021/07/09 05:25:21;;;;;;;10.03;5.55;;;;;;;24.62;100.00;100285.23;1667716;84;21135;-64
2021/07/09 05:27:48;;;;;;;14.15;5.47;;;;;;;24.64;100.00;100283.76;1668028;84;20939;-64
2021/07/09 05:30:17;;;;;;;13.22;5.03;;;;;;;24.59;100.00;100278.46;1668344;85;28176;-65
2021/07/09 05:32:44;;;;;;;14.90;5.20;;;;;;;24.81;100.00;100276.80;1668162;85;21021;-65
2021/07/09 05:35:13;;;;;;;9.50;4.10;;;;;;;24.96;100.00;100276.00;1668279;84;21022;-64
2021/07/09 05:37:40;;;;;;;51.15;6.25;;;;;;;25.15;100.00;100285.16;1668225;84;21906;-65
2021/07/09 05:40:09;;;;;;;15.60;4.87;;;;;;;25.09;100.00;100283.77;1668204;84;20943;-65
2021/07/09 05:42:36;;;;;;;7.45;3.80;;;;;;;25.11;100.00;100278.72;1698003;82;21020;-65
2021/07/09 05:45:04;;;;;;;9.50;4.40;;;;;;;25.38;100.00;100277.41;1702206;84;21065;-66
2021/07/09 05:47:31;;;;;;;9.43;4.08;;;;;;;25.57;97.30;100283.23;1702238;84;20999;-65
2021/07/09 05:49:59;;;;;;;11.55;5.20;;;;;;;25.78;89.69;100284.59;1701686;84;21197;-65
2021/07/09 05:52:25;;;;;;;13.88;4.47;;;;;;;25.93;92.61;100273.55;1702282;82;20935;-64
2021/07/09 05:54:52;;;;;;;15.93;4.42;;;;;;;26.07;85.33;100279.55;1701778;83;20984;-66
2021/07/09 05:57:20;;;;;;;26.00;4.70;;;;;;;26.24;82.29;100277.17;1701855;82;21026;-65
2021/07/09 05:59:47;;;;;;;12.25;3.92;;;;;;;26.37;80.70;100277.19;1701605;83;20991;-66
2021/07/09 06:02:14;;;;;;;8.90;3.97;;;;;;;26.55;79.86;100278.59;1701883;83;21285;-66
2021/07/09 06:04:40;;;;;;;8.95;4.08;;;;;;;26.56;80.16;100274.70;1701931;84;21719;-65
2021/07/09 06:07:07;;;;;;;15.98;4.15;;;;;;;26.61;75.15;100271.73;1702174;83;20905;-66
2021/07/09 06:09:34;;;;;;;20.45;4.47;;;;;;;26.72;75.82;100274.23;1702169;83;20852;-65
2021/07/09 06:12:00;;;;;;;18.07;5.22;;;;;;;26.73;71.97;100277.80;1702277;83;21054;-65
2021/07/09 06:14:27;;;;;;;11.20;3.50;;;;;;;26.87;75.13;100271.34;1701793;82;21154;-65
2021/07/09 06:16:54;;;;;;;11.48;3.95;;;;;;;27.01;72.93;100268.81;1702193;84;21027;-65
2021/07/09 06:19:21;;;;;;;12.87;4.00;;;;;;;27.21;72.52;100269.25;1702200;83;20995;-66
2021/07/09 06:21:48;;;;;;;12.70;3.77;;;;;;;27.35;69.12;100261.41;1702293;84;21478;-67
2021/07/09 06:24:14;;;;;;;18.97;3.67;;;;;;;27.40;67.10;100270.00;1701746;82;21030;-65
2021/07/09 06:26:42;;;;;;;8.98;3.02;;;;;;;27.55;65.15;100267.08;1701458;84;21125;-68
2021/07/09 06:29:10;;;;;;;43.50;3.80;;;;;;;27.47;59.46;100267.45;1701754;83;20975;-65
2021/07/09 06:31:38;;;;;;;9.75;2.60;;;;;;;27.25;58.04;100263.27;1702168;84;20999;-68
2021/07/09 06:34:05;;;;;;;11.93;3.10;;;;;;;27.35;57.43;100261.41;1701490;82;21514;-66
2021/07/09 06:36:32;;;;;;;6.60;2.10;;;;;;;27.55;56.53;100266.48;1701966;84;21000;-65
2021/07/09 06:39:00;;;;;;;8.63;2.00;;;;;;;27.63;55.66;100263.34;1701904;82;21163;-66
2021/07/09 06:41:27;;;;;;;12.20;2.42;;;;;;;27.76;55.46;100260.78;1700376;82;20928;-65
2021/07/09 06:43:54;;;;;;;12.15;2.22;;;;;;;27.77;54.09;100260.19;1702065;83;21415;-63
2021/07/09 06:46:20;;;;;;;152.90;10.78;;;;;;;27.95;52.42;100265.66;1698647;83;21047;-65
2021/07/09 06:48:50;;;;;;;7.12;2.00;;;;;;;28.09;52.16;100265.78;1679258;84;21050;-67
2021/07/09 06:51:17;;;;;;;4.58;1.98;;;;;;;28.13;50.15;100264.73;1676778;84;21919;-67
2021/07/09 06:53:47;;;;;;;4.33;2.00;;;;;;;28.10;48.08;100268.76;1675709;84;46836;-63
2021/07/09 06:56:17;;;;;;;11.22;2.27;;;;;;;28.13;48.94;100263.34;1672119;85;21046;-65
2021/07/09 06:58:44;;;;;;;9.15;1.92;;;;;;;28.46;47.35;100262.80;1674594;84;21525;-66
2021/07/09 07:01:10;;;;;;;11.60;2.00;;;;;;;28.49;47.20;100263.45;1670303;84;20987;-65
2021/07/09 07:03:38;;;;;;;3.17;1.35;;;;;;;28.32;46.42;100262.64;1675248;84;21160;-65
2021/07/09 07:06:05;;;;;;;14.15;1.95;;;;;;;28.34;43.64;100260.89;1674824;84;21858;-65
2021/07/09 07:08:32;;;;;;;;;;;;;;;28.54;43.60;100268.70;1677530;84;20994;-66
2021/07/09 07:11:00;;;;;;;6.65;2.00;;;;;;;28.73;45.30;100270.14;1675225;85;20162;-63
2021/07/09 07:13:28;;;;;;;3.87;1.77;;;;;;;28.64;39.88;100257.92;1675505;84;21584;-66
2021/07/09 07:15:56;;;;;;;8.25;2.40;;;;;;;28.46;41.93;100260.03;1673321;84;21176;-66
2021/07/09 07:18:24;;;;;;;14.55;2.33;;;;;;;28.34;42.68;100256.75;1684451;83;21047;-67
2021/07/09 07:20:55;;;;;;;13.95;2.20;;;;;;;28.48;44.02;100264.63;1687131;84;21008;-64
2021/07/09 07:23:23;;;;;;;9.58;1.77;;;;;;;28.63;41.86;100256.30;1686765;84;20960;-67
2021/07/09 07:25:50;;;;;;;8.45;1.80;;;;;;;28.61;38.95;100251.75;1686554;84;21637;-64
2021/07/09 07:28:18;;;;;;;4.60;1.65;;;;;;;28.69;40.10;100257.41;1686596;84;21945;-65
2021/07/09 07:30:45;;;;;;;2.37;1.80;;;;;;;28.57;40.22;100259.72;1687360;84;21568;-64
2021/07/09 07:33:11;;;;;;;57.60;5.62;;;;;;;28.48;40.60;100248.85;1686451;84;21008;-65
2021/07/09 07:35:40;;;;;;;18.87;2.22;;;;;;;28.81;40.98;100253.15;1687075;83;21585;-65
2021/07/09 07:38:10;;;;;;;13.22;1.92;;;;;;;28.84;38.57;100253.83;1686105;84;21024;-65
2021/07/09 07:40:41;;;;;;;10.45;2.05;;;;;;;29.04;40.51;100247.16;1686480;83;22004;-66
2021/07/09 07:43:08;;;;;;;10.55;2.08;;;;;;;29.15;41.56;100236.95;1686605;85;21676;-65
2021/07/09 07:45:36;;;;;;;14.07;2.50;;;;;;;29.43;41.78;100240.89;1686639;84;21047;-66
2021/07/09 07:48:10;;;;;;;3.80;1.80;;;;;;;29.47;42.20;100243.13;1686585;83;21000;-65
2021/07/09 07:50:37;;;;;;;33.23;4.70;;;;;;;29.26;39.63;100244.30;1686956;83;21019;-64
2021/07/09 07:53:04;;;;;;;3.72;1.30;;;;;;;29.21;40.12;100234.13;1686569;84;21156;-66
2021/07/09 07:55:30;;;;;;;5.50;1.67;;;;;;;29.02;40.36;100229.34;1686683;85;21007;-65
2021/07/09 07:57:59;;;;;;;8.68;2.90;;;;;;;29.03;40.95;100228.17;1686691;83;21581;-66
2021/07/09 08:00:28;;;;;;;3.95;1.95;;;;;;;28.98;42.33;100226.52;1686660;85;21016;-66
2021/07/09 08:02:57;;;;;;;11.20;2.15;;;;;;;29.25;41.55;100236.36;1687043;83;21039;-65
2021/07/09 08:05:26;;;;;;;5.78;1.57;;;;;;;29.41;42.32;100241.83;1687056;84;21288;-66
2021/07/09 08:07:52;;;;;;;5.58;1.55;;;;;;;29.36;37.53;100239.36;1686464;85;21014;-67
2021/07/09 08:10:19;;;;;;;8.98;2.20;;;;;;;29.47;36.84;100234.83;1687324;84;20987;-66
2021/07/09 08:12:46;;;;;;;9.65;2.33;;;;;;;29.60;38.52;100225.22;1687155;83;20985;-67
2021/07/09 08:15:13;;;;;;;17.90;2.10;;;;;;;29.55;39.01;100229.67;1687702;85;20888;-66
2021/07/09 08:17:41;;;;;;;9.08;1.98;;;;;;;29.50;37.11;100223.06;1686926;85;21882;-66
2021/07/09 08:20:09;;;;;;;9.03;1.62;;;;;;;29.67;37.59;100212.94;1686874;83;21602;-65
2021/07/09 08:22:38;;;;;;;8.93;1.62;;;;;;;29.60;36.81;100227.19;1686385;83;20980;-65
2021/07/09 08:25:09;;;;;;;6.03;1.60;;;;;;;29.49;37.69;100226.97;1687089;84;21016;-65
2021/07/09 08:27:40;;;;;;;3.95;1.50;;;;;;;29.55;36.67;100222.76;1687393;84;21039;-66
2021/07/09 08:30:09;;;;;;;5.10;1.85;;;;;;;29.61;36.57;100226.02;1687088;83;21184;-65
2021/07/09 08:32:36;;;;;;;8.38;1.92;;;;;;;29.74;36.27;100229.44;1686988;83;21876;-67
2021/07/09 08:35:07;;;;;;;8.20;1.95;;;;;;;30.08;37.76;100218.77;1687082;84;20940;-67
2021/07/09 08:37:33;;;;;;;5.85;1.57;;;;;;;30.31;35.24;100220.19;1687152;83;21078;-66
2021/07/09 08:40:00;;;;;;;3.62;1.80;;;;;;;30.01;36.32;100215.09;1687120;83;21019;-65
2021/07/09 08:42:26;;;;;;;5.43;1.70;;;;;;;30.05;36.02;100219.52;1687487;84;21143;-65
2021/07/09 08:44:54;;;;;;;3.12;1.42;;;;;;;30.17;36.57;100219.13;1686885;83;21691;-66
2021/07/09 08:47:20;;;;;;;10.78;1.67;;;;;;;30.10;36.01;100217.03;1687400;85;21589;-65
2021/07/09 08:49:47;;;;;;;9.63;1.98;;;;;;;30.06;36.05;100210.06;1684435;83;21082;-66
2021/07/09 08:52:16;;;;;;;2.60;1.65;;;;;;;30.24;35.92;100211.73;1677837;85;21633;-65
2021/07/09 08:54:45;;;;;;;3.42;1.60;;;;;;;30.23;36.34;100210.70;1672719;84;21096;-66
2021/07/09 08:57:14;;;;;;;2.67;1.40;;;;;;;30.05;36.59;100208.45;1675311;84;21617;-63
2021/07/09 08:59:41;;;;;;;7.87;2.25;;;;;;;29.94;35.76;100208.05;1639911;85;20987;-70
2021/07/09 09:02:09;;;;;;;6.83;2.85;;;;;;;29.80;36.32;100196.96;1609917;87;21490;-64
2021/07/09 09:04:38;;;;;;;9.70;2.05;;;;;;;29.65;36.78;100195.88;1609766;87;21063;-66
2021/07/09 09:07:11;;;;;;;11.25;2.62;;;;;;;29.65;36.35;100188.96;1636989;86;21172;-65
2021/07/09 09:09:41;;;;;;;5.92;1.65;;;;;;;29.99;38.04;100189.19;1609553;88;21014;-66
2021/07/09 09:12:18;;;;;;;4.30;1.60;;;;;;;30.08;35.23;100189.71;1612890;88;20956;-66
2021/07/09 09:14:51;;;;;;;5.25;2.02;;;;;;;30.12;35.42;100191.96;1649245;85;20992;-64
2021/07/09 09:17:37;;;;;;;7.30;1.80;;;;;;;30.16;36.11;100185.12;1634009;87;21031;-67
2021/07/09 09:20:16;;;;;;;3.12;2.20;;;;;;;29.94;34.46;100189.50;1647766;85;21957;-67
2021/07/09 09:22:53;;;;;;;2.40;1.70;;;;;;;29.84;35.40;100180.41;1627521;87;21828;-65
2021/07/09 09:25:27;;;;;;;14.80;1.65;;;;;;;29.70;35.49;100185.92;1639286;86;21035;-68
2021/07/09 09:28:11;;;;;;;3.08;1.60;;;;;;;29.67;35.26;100178.36;1687058;84;21046;-62
2021/07/09 09:30:40;;;;;;;3.12;1.47;;;;;;;29.89;34.44;100175.38;1686978;84;20959;-66
2021/07/09 09:33:12;;;;;;;4.97;1.80;;;;;;;30.11;35.48;100167.44;1687218;84;21621;-66
2021/07/09 09:35:58;;;;;;;9.10;1.60;;;;;;;30.32;35.02;100167.78;1687048;84;21510;-66
2021/07/09 09:38:30;;;;;;;4.30;1.60;;;;;;;30.56;35.44;100168.53;1686295;83;21549;-65
2021/07/09 09:40:58;;;;;;;14.78;2.60;;;;;;;30.50;36.13;100169.45;1689223;84;21028;-68
2021/07/09 09:43:29;;;;;;;10.10;2.20;;;;;;;30.77;34.39;100177.70;1701242;83;21054;-66
2021/07/09 09:46:06;;;;;;;4.60;1.42;;;;;;;30.92;33.84;100177.36;1701899;83;21111;-64
2021/07/09 09:48:45;;;;;;;7.87;2.02;;;;;;;30.97;32.16;100175.63;1702027;83;21003;-67
2021/07/09 09:51:39;;;;;;;4.87;1.80;;;;;;;30.58;33.81;100173.70;1701926;84;20856;-68
2021/07/09 09:54:10;;;;;;;2.33;1.80;;;;;;;30.26;32.68;100157.41;1701802;83;20948;-66
2021/07/09 09:56:46;;;;;;;5.55;1.60;;;;;;;30.03;32.56;100171.24;1701367;83;21055;-68
2021/07/09 09:59:24;;;;;;;4.50;1.62;;;;;;;30.18;32.83;100166.73;1683040;84;21160;-66
2021/07/09 10:02:02;;;;;;;5.42;2.02;;;;;;;30.36;34.31;100155.98;1701810;82;21035;-67
2021/07/09 10:04:29;;;;;;;2.12;1.55;;;;;;;30.97;35.69;100156.23;1702461;84;20979;-65
2021/07/09 10:06:57;;;;;;;6.33;1.50;;;;;;;30.90;33.67;100160.30;1701489;84;21022;-65
2021/07/09 10:09:25;;;;;;;4.92;1.65;;;;;;;30.86;34.89;100151.92;1702266;83;20991;-66
2021/07/09 10:11:52;;;;;;;6.08;1.65;;;;;;;30.79;32.33;100159.32;1701488;83;21150;-68
2021/07/09 10:14:21;;;;;;;7.30;2.22;;;;;;;30.81;33.34;100161.14;1701710;83;20979;-66
2021/07/09 10:16:51;;;;;;;5.58;1.62;;;;;;;30.98;34.67;100155.05;1701447;84;20955;-66
2021/07/09 10:19:34;;;;;;;5.62;1.85;;;;;;;31.07;32.44;100164.47;1701765;84;21193;-65
2021/07/09 10:22:05;;;;;;;7.12;1.90;;;;;;;30.66;31.54;100156.00;1701457;83;22069;-66
2021/07/09 10:24:34;;;;;;;5.78;1.65;;;;;;;30.52;34.47;100147.69;1702039;82;21165;-66
2021/07/09 10:27:01;;;;;;;3.52;1.65;;;;;;;30.62;33.13;100144.06;1701475;84;21567;-64
2021/07/09 10:29:43;;;;;;;;;;;;;;;30.54;31.18;100139.02;1704033;82;20983;-68
2021/07/09 10:32:39;;;;;;;4.47;1.65;;;;;;;30.41;31.73;100143.98;1629813;87;20154;-65
2021/07/09 10:35:08;;;;;;;6.45;1.75;;;;;;;30.07;34.44;100131.39;1632514;87;21119;-66
2021/07/09 10:37:35;;;;;;;9.25;2.33;;;;;;;30.01;35.14;100134.27;1632232;87;21167;-62
2021/07/09 10:40:19;;;;;;;13.20;2.33;;;;;;;30.26;34.16;100126.37;1632027;87;20968;-65
2021/07/09 10:42:52;;;;;;;5.65;2.10;;;;;;;30.60;33.42;100127.83;1630594;87;21541;-65
2021/07/09 10:45:22;;;;;;;2.50;1.75;;;;;;;31.02;34.58;100127.38;1591625;89;21115;-68
2021/07/09 10:48:11;;;;;;;2.27;1.42;;;;;;;31.25;31.67;100131.39;1611985;88;21039;-67
2021/07/09 10:50:49;;;;;;;12.53;2.02;;;;;;;30.91;31.82;100121.10;1590834;89;21371;-68
2021/07/09 10:53:25;;;;;;;2.12;1.42;;;;;;;30.63;31.94;100117.97;1611908;87;21142;-71
2021/07/09 10:56:00;;;;;;;10.85;1.62;;;;;;;30.54;31.06;100123.78;1611942;87;21047;-65
2021/07/09 10:58:42;;;;;;;3.35;1.22;;;;;;;30.47;30.75;100120.91;1611911;87;21541;-64
2021/07/09 11:01:21;;;;;;;8.08;1.90;;;;;;;30.45;30.18;100116.33;1612107;88;21774;-65
2021/07/09 11:04:04;;;;;;;4.35;1.90;;;;;;;30.41;30.70;100104.42;1612050;89;21178;-63
2021/07/09 11:06:39;;;;;;;4.85;1.50;;;;;;;30.44;29.90;100114.16;1612190;89;21114;-63
2021/07/09 11:09:12;;;;;;;3.90;1.52;;;;;;;30.90;30.49;100118.14;1612050;87;21102;-64
2021/07/09 11:11:52;;;;;;;7.62;2.40;;;;;;;31.16;29.12;100117.81;1611425;87;21082;-64
2021/07/09 11:14:39;;;;;;;4.65;1.65;;;;;;;30.85;30.02;100118.47;1610613;88;21022;-65
2021/07/09 11:17:21;;;;;;;8.93;1.50;;;;;;;30.46;29.93;100109.04;1666778;85;21847;-65
2021/07/09 11:19:49;;;;;;;3.17;1.47;;;;;;;30.38;31.18;100097.66;1675212;84;20954;-61
2021/07/09 11:22:16;;;;;;;6.35;1.47;;;;;;;30.40;30.97;100102.81;1675500;85;21132;-62
2021/07/09 11:24:56;;;;;;;3.55;1.50;;;;;;;30.36;31.60;100090.91;1646840;85;21057;-65
2021/07/09 11:27:25;;;;;;;6.35;1.60;;;;;;;30.47;32.38;100089.06;1675578;84;21101;-65